sensor_id;sensor_type;location;lat;lon;timestamp;temperature;humidity
2260;DHT22;333;48.800;9.530;2024-02-26T00:00:41;7.70;99.60
2260;DHT22;333;48.800;9.530;2024-02-26T00:03:09;7.70;99.60
2260;DHT22;333;48.800;9.530;2024-02-26T00:05:36;7.60;99.60
2260;DHT22;333;48.800;9.530;2024-02-26T00:08:05;7.70;99.60
2260;DHT22;333;48.800;9.530;2024-02-26T00:10:32;7.60;99.60
2260;DHT22;333;48.800;9.530;2024-02-26T00:12:59;7.60;99.60
2260;DHT22;333;48.800;9.530;2024-02-26T00:15:25;7.60;99.60
2260;DHT22;333;48.800;9.530;2024-02-26T00:17:53;7.50;99.60
2260;DHT22;333;48.800;9.530;2024-02-26T00:20:21;7.40;99.60
2260;DHT22;333;48.800;9.530;2024-02-26T00:22:48;7.40;99.60
2260;DHT22;333;48.800;9.530;2024-02-26T00:25:15;7.60;99.60
2260;DHT22;333;48.800;9.530;2024-02-26T00:27:46;7.60;99.60
2260;DHT22;333;48.800;9.530;2024-02-26T00:30:13;7.40;99.60
2260;DHT22;333;48.800;9.530;2024-02-26T00:32:40;7.40;99.60
2260;DHT22;333;48.800;9.530;2024-02-26T00:35:07;7.70;99.60
2260;DHT22;333;48.800;9.530;2024-02-26T00:37:36;7.90;99.60
2260;DHT22;333;48.800;9.530;2024-02-26T00:40:04;7.70;99.60
2260;DHT22;333;48.800;9.530;2024-02-26T00:42:31;7.50;99.60
2260;DHT22;333;48.800;9.530;2024-02-26T00:44:58;7.40;99.60
2260;DHT22;333;48.800;9.530;2024-02-26T00:47:25;7.40;99.60
2260;DHT22;333;48.800;9.530;2024-02-26T00:49:52;7.30;99.60
2260;DHT22;333;48.800;9.530;2024-02-26T00:52:19;7.40;99.60
2260;DHT22;333;48.800;9.530;2024-02-26T00:54:47;7.50;99.60
2260;DHT22;333;48.800;9.530;2024-02-26T00:57:14;7.50;99.60
2260;DHT22;333;48.800;9.530;2024-02-26T00:59:41;7.60;99.60
2260;DHT22;333;48.800;9.530;2024-02-26T01:02:17;7.60;99.60
2260;DHT22;333;48.800;9.530;2024-02-26T01:04:44;7.40;99.60
2260;DHT22;333;48.800;9.530;2024-02-26T01:07:11;7.40;99.60
2260;DHT22;333;48.800;9.530;2024-02-26T01:09:38;7.40;99.60
2260;DHT22;333;48.800;9.530;2024-02-26T01:12:06;7.60;99.60
2260;DHT22;333;48.800;9.530;2024-02-26T01:14:33;7.70;99.60
2260;DHT22;333;48.800;9.530;2024-02-26T01:17:00;7.60;99.60
2260;DHT22;333;48.800;9.530;2024-02-26T01:19:28;7.50;99.60
2260;DHT22;333;48.800;9.530;2024-02-26T01:21:55;7.40;99.60
2260;DHT22;333;48.800;9.530;2024-02-26T01:24:22;7.40;99.60
2260;DHT22;333;48.800;9.530;2024-02-26T01:26:50;7.40;99.60
2260;DHT22;333;48.800;9.530;2024-02-26T01:29:18;7.50;99.60
2260;DHT22;333;48.800;9.530;2024-02-26T01:31:45;7.60;99.60
2260;DHT22;333;48.800;9.530;2024-02-26T01:34:12;7.80;99.60
2260;DHT22;333;48.800;9.530;2024-02-26T01:36:40;7.70;99.60
2260;DHT22;333;48.800;9.530;2024-02-26T01:39:07;7.50;99.60
2260;DHT22;333;48.800;9.530;2024-02-26T01:41:37;7.40;99.60
2260;DHT22;333;48.800;9.530;2024-02-26T01:44:04;7.40;99.60
2260;DHT22;333;48.800;9.530;2024-02-26T01:46:33;7.50;99.60
2260;DHT22;333;48.800;9.530;2024-02-26T01:49:01;7.40;99.60
2260;DHT22;333;48.800;9.530;2024-02-26T01:51:29;7.30;99.60
2260;DHT22;333;48.800;9.530;2024-02-26T01:53:57;7.30;99.60
2260;DHT22;333;48.800;9.530;2024-02-26T01:56:24;7.40;99.60
2260;DHT22;333;48.800;9.530;2024-02-26T01:58:56;7.40;99.60
2260;DHT22;333;48.800;9.530;2024-02-26T02:01:25;7.40;99.60
2260;DHT22;333;48.800;9.530;2024-02-26T02:03:57;7.30;99.60
2260;DHT22;333;48.800;9.530;2024-02-26T02:06:24;7.40;99.60
2260;DHT22;333;48.800;9.530;2024-02-26T02:08:52;7.30;99.60
2260;DHT22;333;48.800;9.530;2024-02-26T02:11:21;7.30;99.60
2260;DHT22;333;48.800;9.530;2024-02-26T02:13:48;7.40;99.60
2260;DHT22;333;48.800;9.530;2024-02-26T02:16:15;7.50;99.60
2260;DHT22;333;48.800;9.530;2024-02-26T02:18:42;7.60;99.60
2260;DHT22;333;48.800;9.530;2024-02-26T02:21:10;7.60;99.60
2260;DHT22;333;48.800;9.530;2024-02-26T02:23:37;7.70;99.60
2260;DHT22;333;48.800;9.530;2024-02-26T02:26:04;7.70;99.60
2260;DHT22;333;48.800;9.530;2024-02-26T02:28:31;7.80;99.60
2260;DHT22;333;48.800;9.530;2024-02-26T02:30:59;7.80;99.60
2260;DHT22;333;48.800;9.530;2024-02-26T02:33:26;7.90;99.60
2260;DHT22;333;48.800;9.530;2024-02-26T02:35:53;7.90;99.60
2260;DHT22;333;48.800;9.530;2024-02-26T02:38:22;8.00;99.60
2260;DHT22;333;48.800;9.530;2024-02-26T02:40:51;7.90;99.60
2260;DHT22;333;48.800;9.530;2024-02-26T02:43:18;7.80;99.60
2260;DHT22;333;48.800;9.530;2024-02-26T02:45:45;7.60;99.60
2260;DHT22;333;48.800;9.530;2024-02-26T02:48:12;7.50;99.60
2260;DHT22;333;48.800;9.530;2024-02-26T02:50:39;7.40;99.60
2260;DHT22;333;48.800;9.530;2024-02-26T02:53:06;7.30;99.60
2260;DHT22;333;48.800;9.530;2024-02-26T02:55:37;7.30;99.60
2260;DHT22;333;48.800;9.530;2024-02-26T02:58:04;7.20;99.60
2260;DHT22;333;48.800;9.530;2024-02-26T03:00:32;7.20;99.60
2260;DHT22;333;48.800;9.530;2024-02-26T03:03:00;7.10;99.60
2260;DHT22;333;48.800;9.530;2024-02-26T03:05:27;7.20;99.60
2260;DHT22;333;48.800;9.530;2024-02-26T03:07:54;7.10;99.60
2260;DHT22;333;48.800;9.530;2024-02-26T03:10:21;7.00;99.60
2260;DHT22;333;48.800;9.530;2024-02-26T03:12:49;7.10;99.60
2260;DHT22;333;48.800;9.530;2024-02-26T03:15:16;7.00;99.60
2260;DHT22;333;48.800;9.530;2024-02-26T03:17:43;7.20;99.60
2260;DHT22;333;48.800;9.530;2024-02-26T03:20:11;7.30;99.60
2260;DHT22;333;48.800;9.530;2024-02-26T03:22:38;7.30;99.60
2260;DHT22;333;48.800;9.530;2024-02-26T03:25:06;7.30;99.60
2260;DHT22;333;48.800;9.530;2024-02-26T03:27:33;7.20;99.60
2260;DHT22;333;48.800;9.530;2024-02-26T03:30:02;7.10;99.60
2260;DHT22;333;48.800;9.530;2024-02-26T03:32:29;7.20;99.60
2260;DHT22;333;48.800;9.530;2024-02-26T03:34:56;7.10;99.60
2260;DHT22;333;48.800;9.530;2024-02-26T03:37:23;7.00;99.60
2260;DHT22;333;48.800;9.530;2024-02-26T03:39:50;6.90;99.60
2260;DHT22;333;48.800;9.530;2024-02-26T03:42:17;6.80;99.60
2260;DHT22;333;48.800;9.530;2024-02-26T03:44:45;6.80;99.60
2260;DHT22;333;48.800;9.530;2024-02-26T03:47:13;6.80;99.60
2260;DHT22;333;48.800;9.530;2024-02-26T03:49:40;6.70;99.60
2260;DHT22;333;48.800;9.530;2024-02-26T03:52:07;6.60;99.60
2260;DHT22;333;48.800;9.530;2024-02-26T03:54:34;6.50;99.60
2260;DHT22;333;48.800;9.530;2024-02-26T03:57:01;6.50;99.60
2260;DHT22;333;48.800;9.530;2024-02-26T03:59:28;6.40;99.60
2260;DHT22;333;48.800;9.530;2024-02-26T04:01:55;6.30;99.60
2260;DHT22;333;48.800;9.530;2024-02-26T04:04:23;6.30;99.60
2260;DHT22;333;48.800;9.530;2024-02-26T04:06:50;6.30;99.60
2260;DHT22;333;48.800;9.530;2024-02-26T04:09:17;6.30;99.60
2260;DHT22;333;48.800;9.530;2024-02-26T04:11:45;6.20;99.60
2260;DHT22;333;48.800;9.530;2024-02-26T04:14:12;6.30;99.60
2260;DHT22;333;48.800;9.530;2024-02-26T04:16:39;6.20;99.60
2260;DHT22;333;48.800;9.530;2024-02-26T04:19:06;6.30;99.60
2260;DHT22;333;48.800;9.530;2024-02-26T04:21:35;6.30;99.60
2260;DHT22;333;48.800;9.530;2024-02-26T04:24:03;6.50;99.60
2260;DHT22;333;48.800;9.530;2024-02-26T04:26:33;6.50;99.60
2260;DHT22;333;48.800;9.530;2024-02-26T04:29:01;6.40;99.60
2260;DHT22;333;48.800;9.530;2024-02-26T04:31:27;6.30;99.60
2260;DHT22;333;48.800;9.530;2024-02-26T04:33:56;6.20;99.60
2260;DHT22;333;48.800;9.530;2024-02-26T04:36:22;6.20;99.60
2260;DHT22;333;48.800;9.530;2024-02-26T04:38:52;6.30;99.60
2260;DHT22;333;48.800;9.530;2024-02-26T04:41:20;6.20;99.60
2260;DHT22;333;48.800;9.530;2024-02-26T04:43:47;6.20;99.60
2260;DHT22;333;48.800;9.530;2024-02-26T04:46:14;6.20;99.60
2260;DHT22;333;48.800;9.530;2024-02-26T04:48:41;6.10;99.60
2260;DHT22;333;48.800;9.530;2024-02-26T04:51:08;6.20;99.60
2260;DHT22;333;48.800;9.530;2024-02-26T04:53:35;6.40;99.60
2260;DHT22;333;48.800;9.530;2024-02-26T04:56:04;6.50;99.60
2260;DHT22;333;48.800;9.530;2024-02-26T04:58:31;6.30;99.60
2260;DHT22;333;48.800;9.530;2024-02-26T05:00:58;6.20;99.60
2260;DHT22;333;48.800;9.530;2024-02-26T05:03:25;6.10;99.60
2260;DHT22;333;48.800;9.530;2024-02-26T05:05:52;6.00;99.60
2260;DHT22;333;48.800;9.530;2024-02-26T05:08:19;6.10;99.60
2260;DHT22;333;48.800;9.530;2024-02-26T05:10:46;6.20;99.60
2260;DHT22;333;48.800;9.530;2024-02-26T05:13:14;6.30;99.60
2260;DHT22;333;48.800;9.530;2024-02-26T05:15:43;6.20;99.60
2260;DHT22;333;48.800;9.530;2024-02-26T05:18:12;6.10;99.60
2260;DHT22;333;48.800;9.530;2024-02-26T05:20:39;6.00;99.60
2260;DHT22;333;48.800;9.530;2024-02-26T05:23:06;5.90;99.60
2260;DHT22;333;48.800;9.530;2024-02-26T05:25:33;5.90;99.60
2260;DHT22;333;48.800;9.530;2024-02-26T05:28:00;5.80;99.60
2260;DHT22;333;48.800;9.530;2024-02-26T05:30:29;5.90;99.60
2260;DHT22;333;48.800;9.530;2024-02-26T05:32:56;5.90;99.60
2260;DHT22;333;48.800;9.530;2024-02-26T05:35:22;5.90;99.60
2260;DHT22;333;48.800;9.530;2024-02-26T05:37:49;6.20;99.60
2260;DHT22;333;48.800;9.530;2024-02-26T05:40:17;6.10;99.60
2260;DHT22;333;48.800;9.530;2024-02-26T05:42:44;6.30;99.60
2260;DHT22;333;48.800;9.530;2024-02-26T05:45:11;6.40;99.60
2260;DHT22;333;48.800;9.530;2024-02-26T05:47:39;6.50;99.60
2260;DHT22;333;48.800;9.530;2024-02-26T05:50:09;6.40;99.60
2260;DHT22;333;48.800;9.530;2024-02-26T05:52:36;6.30;99.60
2260;DHT22;333;48.800;9.530;2024-02-26T05:55:04;6.30;99.60
2260;DHT22;333;48.800;9.530;2024-02-26T05:57:32;6.40;99.60
2260;DHT22;333;48.800;9.530;2024-02-26T05:59:59;6.40;99.60
2260;DHT22;333;48.800;9.530;2024-02-26T06:02:29;6.50;99.60
2260;DHT22;333;48.800;9.530;2024-02-26T06:04:57;6.40;99.60
2260;DHT22;333;48.800;9.530;2024-02-26T06:07:24;6.40;99.60
2260;DHT22;333;48.800;9.530;2024-02-26T06:09:51;6.40;99.60
2260;DHT22;333;48.800;9.530;2024-02-26T06:12:18;6.40;99.60
2260;DHT22;333;48.800;9.530;2024-02-26T06:14:45;6.30;99.60
2260;DHT22;333;48.800;9.530;2024-02-26T06:17:13;6.20;99.60
2260;DHT22;333;48.800;9.530;2024-02-26T06:19:40;6.10;99.60
2260;DHT22;333;48.800;9.530;2024-02-26T06:22:08;6.00;99.60
2260;DHT22;333;48.800;9.530;2024-02-26T06:24:35;6.10;99.60
2260;DHT22;333;48.800;9.530;2024-02-26T06:27:03;6.10;99.60
2260;DHT22;333;48.800;9.530;2024-02-26T06:29:30;6.00;99.60
2260;DHT22;333;48.800;9.530;2024-02-26T06:31:57;5.90;99.60
2260;DHT22;333;48.800;9.530;2024-02-26T06:34:24;5.90;99.60
2260;DHT22;333;48.800;9.530;2024-02-26T06:36:51;5.90;99.60
2260;DHT22;333;48.800;9.530;2024-02-26T06:39:19;5.80;99.60
2260;DHT22;333;48.800;9.530;2024-02-26T06:41:46;5.80;99.60
2260;DHT22;333;48.800;9.530;2024-02-26T06:44:14;5.80;99.60
2260;DHT22;333;48.800;9.530;2024-02-26T06:46:42;5.90;99.60
2260;DHT22;333;48.800;9.530;2024-02-26T06:49:09;6.10;99.60
2260;DHT22;333;48.800;9.530;2024-02-26T06:51:36;6.00;99.60
2260;DHT22;333;48.800;9.530;2024-02-26T06:54:03;6.00;99.60
2260;DHT22;333;48.800;9.530;2024-02-26T06:56:31;6.00;99.60
2260;DHT22;333;48.800;9.530;2024-02-26T06:58:58;6.10;99.60
2260;DHT22;333;48.800;9.530;2024-02-26T07:01:25;6.10;99.60
2260;DHT22;333;48.800;9.530;2024-02-26T07:03:55;6.30;99.60
2260;DHT22;333;48.800;9.530;2024-02-26T07:06:22;6.40;99.60
2260;DHT22;333;48.800;9.530;2024-02-26T07:08:49;6.50;99.60
2260;DHT22;333;48.800;9.530;2024-02-26T07:11:16;6.50;99.60
2260;DHT22;333;48.800;9.530;2024-02-26T07:13:46;6.50;99.60
2260;DHT22;333;48.800;9.530;2024-02-26T07:16:13;6.40;99.60
2260;DHT22;333;48.800;9.530;2024-02-26T07:18:40;6.40;99.60
2260;DHT22;333;48.800;9.530;2024-02-26T07:21:07;6.60;99.60
2260;DHT22;333;48.800;9.530;2024-02-26T07:23:33;6.80;99.60
2260;DHT22;333;48.800;9.530;2024-02-26T07:26:00;6.80;99.60
2260;DHT22;333;48.800;9.530;2024-02-26T07:28:27;6.90;99.60
2260;DHT22;333;48.800;9.530;2024-02-26T07:30:56;7.00;99.60
2260;DHT22;333;48.800;9.530;2024-02-26T07:33:23;7.10;99.60
2260;DHT22;333;48.800;9.530;2024-02-26T07:35:50;7.10;99.60
2260;DHT22;333;48.800;9.530;2024-02-26T07:38:19;7.10;99.60
2260;DHT22;333;48.800;9.530;2024-02-26T07:40:46;7.10;99.60
2260;DHT22;333;48.800;9.530;2024-02-26T07:43:13;7.10;99.60
2260;DHT22;333;48.800;9.530;2024-02-26T07:45:40;7.30;99.60
2260;DHT22;333;48.800;9.530;2024-02-26T07:48:09;7.20;99.60
2260;DHT22;333;48.800;9.530;2024-02-26T07:50:35;7.30;99.60
2260;DHT22;333;48.800;9.530;2024-02-26T07:53:02;7.60;99.60
2260;DHT22;333;48.800;9.530;2024-02-26T07:55:30;7.60;99.60
2260;DHT22;333;48.800;9.530;2024-02-26T07:57:57;7.60;99.60
2260;DHT22;333;48.800;9.530;2024-02-26T08:00:24;7.90;99.60
2260;DHT22;333;48.800;9.530;2024-02-26T08:02:51;8.00;99.60
2260;DHT22;333;48.800;9.530;2024-02-26T08:05:20;7.80;99.60
2260;DHT22;333;48.800;9.530;2024-02-26T08:07:47;7.60;99.60
2260;DHT22;333;48.800;9.530;2024-02-26T08:10:14;7.40;99.60
2260;DHT22;333;48.800;9.530;2024-02-26T08:12:41;7.40;99.60
2260;DHT22;333;48.800;9.530;2024-02-26T08:15:08;7.40;99.60
2260;DHT22;333;48.800;9.530;2024-02-26T08:17:36;7.50;99.60
2260;DHT22;333;48.800;9.530;2024-02-26T08:20:04;7.80;99.60
2260;DHT22;333;48.800;9.530;2024-02-26T08:22:33;7.90;99.60
2260;DHT22;333;48.800;9.530;2024-02-26T08:25:00;8.10;99.60
2260;DHT22;333;48.800;9.530;2024-02-26T08:27:25;8.20;99.60
2260;DHT22;333;48.800;9.530;2024-02-26T08:29:52;8.40;99.60
2260;DHT22;333;48.800;9.530;2024-02-26T08:32:19;8.50;99.60
2260;DHT22;333;48.800;9.530;2024-02-26T08:34:46;8.30;99.60
2260;DHT22;333;48.800;9.530;2024-02-26T08:37:13;8.30;99.60
2260;DHT22;333;48.800;9.530;2024-02-26T08:39:41;8.40;99.60
2260;DHT22;333;48.800;9.530;2024-02-26T08:42:08;8.20;99.60
2260;DHT22;333;48.800;9.530;2024-02-26T08:44:35;8.30;99.60
2260;DHT22;333;48.800;9.530;2024-02-26T08:47:02;8.60;99.60
2260;DHT22;333;48.800;9.530;2024-02-26T08:49:29;8.50;99.60
2260;DHT22;333;48.800;9.530;2024-02-26T08:51:57;8.50;99.60
2260;DHT22;333;48.800;9.530;2024-02-26T08:54:23;8.30;99.60
2260;DHT22;333;48.800;9.530;2024-02-26T08:56:52;8.30;99.60
2260;DHT22;333;48.800;9.530;2024-02-26T08:59:19;8.10;99.60
2260;DHT22;333;48.800;9.530;2024-02-26T09:01:48;8.00;99.60
2260;DHT22;333;48.800;9.530;2024-02-26T09:04:15;8.00;99.60
2260;DHT22;333;48.800;9.530;2024-02-26T09:06:43;8.00;99.60
2260;DHT22;333;48.800;9.530;2024-02-26T09:09:10;8.00;99.60
2260;DHT22;333;48.800;9.530;2024-02-26T09:11:37;8.20;99.60
2260;DHT22;333;48.800;9.530;2024-02-26T09:14:05;8.40;99.60
2260;DHT22;333;48.800;9.530;2024-02-26T09:16:32;8.60;99.60
2260;DHT22;333;48.800;9.530;2024-02-26T09:19:00;8.90;99.60
2260;DHT22;333;48.800;9.530;2024-02-26T09:21:26;9.20;99.60
2260;DHT22;333;48.800;9.530;2024-02-26T09:23:53;9.30;99.60
2260;DHT22;333;48.800;9.530;2024-02-26T09:26:20;9.30;99.60
2260;DHT22;333;48.800;9.530;2024-02-26T09:28:48;9.30;99.60
2260;DHT22;333;48.800;9.530;2024-02-26T09:31:17;9.30;99.60
2260;DHT22;333;48.800;9.530;2024-02-26T09:33:44;9.30;99.60
2260;DHT22;333;48.800;9.530;2024-02-26T09:36:11;9.50;99.60
2260;DHT22;333;48.800;9.530;2024-02-26T09:38:39;9.50;99.60
2260;DHT22;333;48.800;9.530;2024-02-26T09:41:06;9.60;99.60
2260;DHT22;333;48.800;9.530;2024-02-26T09:43:35;9.60;99.60
2260;DHT22;333;48.800;9.530;2024-02-26T09:46:04;9.50;99.60
2260;DHT22;333;48.800;9.530;2024-02-26T09:48:34;9.50;99.60
2260;DHT22;333;48.800;9.530;2024-02-26T09:51:02;9.60;99.60
2260;DHT22;333;48.800;9.530;2024-02-26T09:53:29;9.70;99.60
2260;DHT22;333;48.800;9.530;2024-02-26T09:55:57;9.90;99.60
2260;DHT22;333;48.800;9.530;2024-02-26T09:58:26;10.00;99.60
2260;DHT22;333;48.800;9.530;2024-02-26T10:00:57;9.90;99.60
2260;DHT22;333;48.800;9.530;2024-02-26T10:03:31;10.00;99.60
2260;DHT22;333;48.800;9.530;2024-02-26T10:05:59;10.10;99.60
2260;DHT22;333;48.800;9.530;2024-02-26T10:08:28;10.20;99.60
2260;DHT22;333;48.800;9.530;2024-02-26T10:10:56;10.20;99.60
2260;DHT22;333;48.800;9.530;2024-02-26T10:13:23;10.30;99.60
2260;DHT22;333;48.800;9.530;2024-02-26T10:15:51;10.40;99.60
2260;DHT22;333;48.800;9.530;2024-02-26T10:18:18;10.60;99.60
2260;DHT22;333;48.800;9.530;2024-02-26T10:21:00;10.60;99.60
2260;DHT22;333;48.800;9.530;2024-02-26T10:23:27;10.60;99.60
2260;DHT22;333;48.800;9.530;2024-02-26T10:25:54;10.20;99.60
2260;DHT22;333;48.800;9.530;2024-02-26T10:28:22;10.50;99.60
2260;DHT22;333;48.800;9.530;2024-02-26T10:30:51;10.70;99.60
2260;DHT22;333;48.800;9.530;2024-02-26T10:33:19;10.90;99.60
2260;DHT22;333;48.800;9.530;2024-02-26T10:35:46;11.10;99.60
2260;DHT22;333;48.800;9.530;2024-02-26T10:38:15;11.20;99.60
2260;DHT22;333;48.800;9.530;2024-02-26T10:40:45;11.40;99.60
2260;DHT22;333;48.800;9.530;2024-02-26T10:43:12;11.60;99.60
2260;DHT22;333;48.800;9.530;2024-02-26T10:45:40;11.70;99.60
2260;DHT22;333;48.800;9.530;2024-02-26T10:48:10;12.10;99.60
2260;DHT22;333;48.800;9.530;2024-02-26T10:50:38;12.30;99.60
2260;DHT22;333;48.800;9.530;2024-02-26T10:53:10;12.50;99.60
2260;DHT22;333;48.800;9.530;2024-02-26T10:55:43;12.40;99.60
2260;DHT22;333;48.800;9.530;2024-02-26T10:58:13;12.30;99.60
2260;DHT22;333;48.800;9.530;2024-02-26T11:00:41;11.80;99.60
2260;DHT22;333;48.800;9.530;2024-02-26T11:03:11;11.60;99.60
2260;DHT22;333;48.800;9.530;2024-02-26T11:05:40;11.40;99.60
2260;DHT22;333;48.800;9.530;2024-02-26T11:08:08;11.40;99.60
2260;DHT22;333;48.800;9.530;2024-02-26T11:10:37;11.40;99.60
2260;DHT22;333;48.800;9.530;2024-02-26T11:13:06;11.70;99.60
2260;DHT22;333;48.800;9.530;2024-02-26T11:15:36;11.70;99.60
2260;DHT22;333;48.800;9.530;2024-02-26T11:18:04;12.00;99.60
2260;DHT22;333;48.800;9.530;2024-02-26T11:20:33;12.40;99.60
2260;DHT22;333;48.800;9.530;2024-02-26T11:23:01;12.80;99.60
2260;DHT22;333;48.800;9.530;2024-02-26T11:25:28;13.20;99.60
2260;DHT22;333;48.800;9.530;2024-02-26T11:27:58;13.20;99.60
2260;DHT22;333;48.800;9.530;2024-02-26T11:30:31;13.60;99.60
2260;DHT22;333;48.800;9.530;2024-02-26T11:32:59;13.80;99.60
2260;DHT22;333;48.800;9.530;2024-02-26T11:35:28;13.80;99.60
2260;DHT22;333;48.800;9.530;2024-02-26T11:37:56;13.80;99.60
2260;DHT22;333;48.800;9.530;2024-02-26T11:40:24;13.80;99.60
2260;DHT22;333;48.800;9.530;2024-02-26T11:42:51;13.70;99.60
2260;DHT22;333;48.800;9.530;2024-02-26T11:45:53;13.70;99.60
2260;DHT22;333;48.800;9.530;2024-02-26T11:48:25;13.80;99.60
2260;DHT22;333;48.800;9.530;2024-02-26T11:50:53;14.30;99.60
2260;DHT22;333;48.800;9.530;2024-02-26T11:53:25;14.40;99.30
2260;DHT22;333;48.800;9.530;2024-02-26T11:56:20;14.20;98.30
2260;DHT22;333;48.800;9.530;2024-02-26T11:58:48;14.30;98.00
2260;DHT22;333;48.800;9.530;2024-02-26T12:01:40;14.40;98.00
2260;DHT22;333;48.800;9.530;2024-02-26T12:04:12;14.60;97.40
2260;DHT22;333;48.800;9.530;2024-02-26T12:06:42;14.60;96.70
2260;DHT22;333;48.800;9.530;2024-02-26T12:09:09;14.40;97.70
2260;DHT22;333;48.800;9.530;2024-02-26T12:11:38;14.30;98.40
2260;DHT22;333;48.800;9.530;2024-02-26T12:14:07;14.30;99.60
2260;DHT22;333;48.800;9.530;2024-02-26T12:16:35;14.40;99.10
2260;DHT22;333;48.800;9.530;2024-02-26T12:19:06;14.40;99.20
2260;DHT22;333;48.800;9.530;2024-02-26T12:21:34;14.50;99.60
2260;DHT22;333;48.800;9.530;2024-02-26T12:24:11;14.60;99.30
2260;DHT22;333;48.800;9.530;2024-02-26T12:26:39;14.80;98.70
2260;DHT22;333;48.800;9.530;2024-02-26T12:29:06;14.60;99.30
2260;DHT22;333;48.800;9.530;2024-02-26T12:31:33;14.90;98.50
2260;DHT22;333;48.800;9.530;2024-02-26T12:34:02;14.90;98.40
2260;DHT22;333;48.800;9.530;2024-02-26T12:36:31;15.00;98.70
2260;DHT22;333;48.800;9.530;2024-02-26T12:39:00;14.90;98.90
2260;DHT22;333;48.800;9.530;2024-02-26T12:41:38;15.00;97.20
2260;DHT22;333;48.800;9.530;2024-02-26T12:44:14;15.00;97.80
2260;DHT22;333;48.800;9.530;2024-02-26T12:46:41;14.90;98.60
2260;DHT22;333;48.800;9.530;2024-02-26T12:49:08;14.70;99.10
2260;DHT22;333;48.800;9.530;2024-02-26T12:51:37;14.70;98.50
2260;DHT22;333;48.800;9.530;2024-02-26T12:54:04;14.70;99.60
2260;DHT22;333;48.800;9.530;2024-02-26T12:56:32;14.70;99.00
2260;DHT22;333;48.800;9.530;2024-02-26T12:58:59;14.70;99.60
2260;DHT22;333;48.800;9.530;2024-02-26T13:01:27;14.70;99.30
2260;DHT22;333;48.800;9.530;2024-02-26T13:03:56;14.80;99.60
2260;DHT22;333;48.800;9.530;2024-02-26T13:06:24;15.00;98.40
2260;DHT22;333;48.800;9.530;2024-02-26T13:08:56;15.20;99.60
2260;DHT22;333;48.800;9.530;2024-02-26T13:11:24;15.60;97.70
2260;DHT22;333;48.800;9.530;2024-02-26T13:13:50;16.10;97.60
2260;DHT22;333;48.800;9.530;2024-02-26T13:16:18;16.10;96.40
2260;DHT22;333;48.800;9.530;2024-02-26T13:18:45;16.20;95.70
2260;DHT22;333;48.800;9.530;2024-02-26T13:21:13;15.90;96.10
2260;DHT22;333;48.800;9.530;2024-02-26T13:23:41;15.60;96.00
2260;DHT22;333;48.800;9.530;2024-02-26T13:26:12;15.30;97.20
2260;DHT22;333;48.800;9.530;2024-02-26T13:28:40;15.00;97.50
2260;DHT22;333;48.800;9.530;2024-02-26T13:31:08;15.10;98.80
2260;DHT22;333;48.800;9.530;2024-02-26T13:33:35;15.00;98.90
2260;DHT22;333;48.800;9.530;2024-02-26T13:36:03;14.90;98.90
2260;DHT22;333;48.800;9.530;2024-02-26T13:38:30;14.60;98.90
2260;DHT22;333;48.800;9.530;2024-02-26T13:40:57;14.60;99.60
2260;DHT22;333;48.800;9.530;2024-02-26T13:43:26;14.60;98.90
2260;DHT22;333;48.800;9.530;2024-02-26T13:45:53;14.50;99.60
2260;DHT22;333;48.800;9.530;2024-02-26T13:48:20;14.60;99.60
2260;DHT22;333;48.800;9.530;2024-02-26T13:50:48;14.70;99.60
2260;DHT22;333;48.800;9.530;2024-02-26T13:53:16;14.60;99.60
2260;DHT22;333;48.800;9.530;2024-02-26T13:55:43;14.50;99.60
2260;DHT22;333;48.800;9.530;2024-02-26T13:58:12;14.30;99.60
2260;DHT22;333;48.800;9.530;2024-02-26T14:00:41;14.30;99.60
2260;DHT22;333;48.800;9.530;2024-02-26T14:03:08;14.50;99.60
2260;DHT22;333;48.800;9.530;2024-02-26T14:05:35;14.60;99.60
2260;DHT22;333;48.800;9.530;2024-02-26T14:08:02;14.60;99.60
2260;DHT22;333;48.800;9.530;2024-02-26T14:10:29;14.70;99.60
2260;DHT22;333;48.800;9.530;2024-02-26T14:12:57;14.70;99.60
2260;DHT22;333;48.800;9.530;2024-02-26T14:15:24;14.40;99.60
2260;DHT22;333;48.800;9.530;2024-02-26T14:17:53;14.50;99.60
2260;DHT22;333;48.800;9.530;2024-02-26T14:20:22;14.60;99.60
2260;DHT22;333;48.800;9.530;2024-02-26T14:22:49;14.50;99.60
2260;DHT22;333;48.800;9.530;2024-02-26T14:25:18;14.90;99.60
2260;DHT22;333;48.800;9.530;2024-02-26T14:27:45;15.00;99.10
2260;DHT22;333;48.800;9.530;2024-02-26T14:30:13;15.10;99.20
2260;DHT22;333;48.800;9.530;2024-02-26T14:32:40;15.20;99.20
2260;DHT22;333;48.800;9.530;2024-02-26T14:35:09;15.40;99.60
2260;DHT22;333;48.800;9.530;2024-02-26T14:37:36;15.60;99.10
2260;DHT22;333;48.800;9.530;2024-02-26T14:40:04;15.50;99.10
2260;DHT22;333;48.800;9.530;2024-02-26T14:42:31;15.60;99.60
2260;DHT22;333;48.800;9.530;2024-02-26T14:44:58;15.60;98.90
2260;DHT22;333;48.800;9.530;2024-02-26T14:47:26;15.70;99.00
2260;DHT22;333;48.800;9.530;2024-02-26T14:49:54;16.00;99.00
2260;DHT22;333;48.800;9.530;2024-02-26T14:52:22;16.40;97.60
2260;DHT22;333;48.800;9.530;2024-02-26T14:54:49;16.30;97.60
2260;DHT22;333;48.800;9.530;2024-02-26T14:57:17;16.00;97.50
2260;DHT22;333;48.800;9.530;2024-02-26T14:59:44;15.40;99.50
2260;DHT22;333;48.800;9.530;2024-02-26T15:02:11;15.00;99.60
2260;DHT22;333;48.800;9.530;2024-02-26T15:04:38;14.70;99.60
2260;DHT22;333;48.800;9.530;2024-02-26T15:07:05;14.80;99.60
2260;DHT22;333;48.800;9.530;2024-02-26T15:09:33;14.70;99.60
2260;DHT22;333;48.800;9.530;2024-02-26T15:12:01;14.60;99.60
2260;DHT22;333;48.800;9.530;2024-02-26T15:14:28;14.20;99.60
2260;DHT22;333;48.800;9.530;2024-02-26T15:16:55;13.90;99.60
2260;DHT22;333;48.800;9.530;2024-02-26T15:19:22;13.90;99.60
2260;DHT22;333;48.800;9.530;2024-02-26T15:21:49;14.00;99.60
2260;DHT22;333;48.800;9.530;2024-02-26T15:24:16;13.80;99.60
2260;DHT22;333;48.800;9.530;2024-02-26T15:26:45;13.60;99.60
2260;DHT22;333;48.800;9.530;2024-02-26T15:29:13;13.60;99.60
2260;DHT22;333;48.800;9.530;2024-02-26T15:31:40;13.60;99.60
2260;DHT22;333;48.800;9.530;2024-02-26T15:34:07;13.50;99.60
2260;DHT22;333;48.800;9.530;2024-02-26T15:36:34;13.40;99.60
2260;DHT22;333;48.800;9.530;2024-02-26T15:39:02;13.40;99.60
2260;DHT22;333;48.800;9.530;2024-02-26T15:41:30;13.20;99.60
2260;DHT22;333;48.800;9.530;2024-02-26T15:43:58;13.10;99.60
2260;DHT22;333;48.800;9.530;2024-02-26T15:46:26;13.00;99.60
2260;DHT22;333;48.800;9.530;2024-02-26T15:48:54;12.80;99.60
2260;DHT22;333;48.800;9.530;2024-02-26T15:51:23;12.80;99.60
2260;DHT22;333;48.800;9.530;2024-02-26T15:53:50;12.60;99.60
2260;DHT22;333;48.800;9.530;2024-02-26T15:56:18;12.60;99.60
2260;DHT22;333;48.800;9.530;2024-02-26T15:58:49;12.60;99.60
2260;DHT22;333;48.800;9.530;2024-02-26T16:01:17;12.50;99.60
2260;DHT22;333;48.800;9.530;2024-02-26T16:03:45;12.50;99.60
2260;DHT22;333;48.800;9.530;2024-02-26T16:06:18;12.40;99.60
2260;DHT22;333;48.800;9.530;2024-02-26T16:08:46;12.40;99.60
2260;DHT22;333;48.800;9.530;2024-02-26T16:11:14;12.30;99.60
2260;DHT22;333;48.800;9.530;2024-02-26T16:13:40;12.30;99.60
2260;DHT22;333;48.800;9.530;2024-02-26T16:16:13;12.30;99.60
2260;DHT22;333;48.800;9.530;2024-02-26T16:18:44;12.30;99.60
2260;DHT22;333;48.800;9.530;2024-02-26T16:21:11;12.10;99.60
2260;DHT22;333;48.800;9.530;2024-02-26T16:23:38;12.10;99.60
2260;DHT22;333;48.800;9.530;2024-02-26T16:26:06;12.00;99.60
2260;DHT22;333;48.800;9.530;2024-02-26T16:28:33;12.00;99.60
2260;DHT22;333;48.800;9.530;2024-02-26T16:31:00;11.90;99.60